sensor_id;sensor_type;location;lat;lon;timestamp;P1;durP1;ratioP1;P2;durP2;ratioP2
41043;SDS011;51680;49.806;18.774;2023-01-05T00:00:36;1.98;;;0.95;;
41043;SDS011;51680;49.806;18.774;2023-01-05T00:03:38;2.17;;;1.10;;
41043;SDS011;51680;49.806;18.774;2023-01-05T00:06:41;1.75;;;0.90;;
41043;SDS011;51680;49.806;18.774;2023-01-05T00:09:44;1.98;;;0.90;;
41043;SDS011;51680;49.806;18.774;2023-01-05T00:12:46;1.37;;;0.70;;
41043;SDS011;51680;49.806;18.774;2023-01-05T00:19:30;1.98;;;0.75;;
41043;SDS011;51680;49.806;18.774;2023-01-05T00:22:50;2.03;;;0.90;;
41043;SDS011;51680;49.806;18.774;2023-01-05T00:25:54;1.52;;;0.90;;
41043;SDS011;51680;49.806;18.774;2023-01-05T00:28:56;1.07;;;0.70;;
41043;SDS011;51680;49.806;18.774;2023-01-05T00:31:58;1.67;;;0.90;;
41043;SDS011;51680;49.806;18.774;2023-01-05T00:35:00;1.70;;;0.80;;
41043;SDS011;51680;49.806;18.774;2023-01-05T00:38:02;1.35;;;0.60;;
41043;SDS011;51680;49.806;18.774;2023-01-05T00:41:05;1.88;;;1.00;;
41043;SDS011;51680;49.806;18.774;2023-01-05T00:44:07;1.90;;;0.90;;
41043;SDS011;51680;49.806;18.774;2023-01-05T00:47:09;1.95;;;0.80;;
41043;SDS011;51680;49.806;18.774;2023-01-05T00:50:11;2.00;;;0.80;;
41043;SDS011;51680;49.806;18.774;2023-01-05T00:53:14;1.92;;;0.77;;
41043;SDS011;51680;49.806;18.774;2023-01-05T00:56:18;2.92;;;0.85;;
41043;SDS011;51680;49.806;18.774;2023-01-05T00:59:19;2.05;;;1.00;;
41043;SDS011;51680;49.806;18.774;2023-01-05T01:02:21;1.40;;;0.73;;
41043;SDS011;51680;49.806;18.774;2023-01-05T01:05:23;2.15;;;1.00;;
41043;SDS011;51680;49.806;18.774;2023-01-05T01:08:25;2.25;;;0.75;;
41043;SDS011;51680;49.806;18.774;2023-01-05T01:11:29;1.45;;;0.68;;
41043;SDS011;51680;49.806;18.774;2023-01-05T01:14:31;1.55;;;0.80;;
41043;SDS011;51680;49.806;18.774;2023-01-05T01:17:32;1.58;;;0.77;;
41043;SDS011;51680;49.806;18.774;2023-01-05T01:20:35;1.27;;;0.77;;
41043;SDS011;51680;49.806;18.774;2023-01-05T01:23:37;1.25;;;0.80;;
41043;SDS011;51680;49.806;18.774;2023-01-05T01:26:40;1.30;;;0.65;;
41043;SDS011;51680;49.806;18.774;2023-01-05T01:29:42;1.90;;;0.90;;
41043;SDS011;51680;49.806;18.774;2023-01-05T01:32:44;1.05;;;0.65;;
41043;SDS011;51680;49.806;18.774;2023-01-05T01:35:45;2.38;;;0.90;;
41043;SDS011;51680;49.806;18.774;2023-01-05T01:38:47;1.55;;;0.70;;
41043;SDS011;51680;49.806;18.774;2023-01-05T01:41:50;1.60;;;0.70;;
41043;SDS011;51680;49.806;18.774;2023-01-05T01:44:53;2.17;;;1.00;;
41043;SDS011;51680;49.806;18.774;2023-01-05T01:48:00;2.55;;;0.77;;
41043;SDS011;51680;49.806;18.774;2023-01-05T01:51:03;1.50;;;0.77;;
41043;SDS011;51680;49.806;18.774;2023-01-05T01:54:08;1.45;;;0.80;;
41043;SDS011;51680;49.806;18.774;2023-01-05T01:57:13;1.52;;;0.80;;
41043;SDS011;51680;49.806;18.774;2023-01-05T02:00:15;2.10;;;0.95;;
41043;SDS011;51680;49.806;18.774;2023-01-05T02:03:18;1.30;;;0.70;;
41043;SDS011;51680;49.806;18.774;2023-01-05T02:06:21;2.10;;;0.82;;
41043;SDS011;51680;49.806;18.774;2023-01-05T02:09:24;1.95;;;1.00;;
41043;SDS011;51680;49.806;18.774;2023-01-05T02:12:30;1.42;;;0.90;;
41043;SDS011;51680;49.806;18.774;2023-01-05T02:15:40;2.63;;;1.17;;
41043;SDS011;51680;49.806;18.774;2023-01-05T02:19:02;1.65;;;0.88;;
41043;SDS011;51680;49.806;18.774;2023-01-05T02:22:28;1.70;;;0.68;;
41043;SDS011;51680;49.806;18.774;2023-01-05T02:26:03;1.80;;;0.88;;
41043;SDS011;51680;49.806;18.774;2023-01-05T02:29:31;1.48;;;0.70;;
41043;SDS011;51680;49.806;18.774;2023-01-05T02:33:02;1.58;;;0.70;;
41043;SDS011;51680;49.806;18.774;2023-01-05T02:36:12;1.30;;;0.60;;
41043;SDS011;51680;49.806;18.774;2023-01-05T02:39:22;1.08;;;0.60;;
41043;SDS011;51680;49.806;18.774;2023-01-05T02:42:27;1.50;;;0.65;;
41043;SDS011;51680;49.806;18.774;2023-01-05T02:45:34;1.73;;;0.70;;
41043;SDS011;51680;49.806;18.774;2023-01-05T02:48:37;1.88;;;0.88;;
41043;SDS011;51680;49.806;18.774;2023-01-05T02:51:43;2.38;;;0.80;;
41043;SDS011;51680;49.806;18.774;2023-01-05T02:54:50;3.97;;;0.45;;
41043;SDS011;51680;49.806;18.774;2023-01-05T02:57:58;1.75;;;0.60;;
41043;SDS011;51680;49.806;18.774;2023-01-05T03:01:07;1.23;;;0.60;;
41043;SDS011;51680;49.806;18.774;2023-01-05T03:04:15;2.50;;;0.80;;
41043;SDS011;51680;49.806;18.774;2023-01-05T03:07:22;1.00;;;0.60;;
41043;SDS011;51680;49.806;18.774;2023-01-05T03:10:28;1.20;;;0.57;;
41043;SDS011;51680;49.806;18.774;2023-01-05T03:13:50;1.20;;;0.70;;
41043;SDS011;51680;49.806;18.774;2023-01-05T03:16:57;1.27;;;0.60;;
41043;SDS011;51680;49.806;18.774;2023-01-05T03:20:04;1.85;;;0.70;;
41043;SDS011;51680;49.806;18.774;2023-01-05T03:23:09;1.67;;;0.60;;
41043;SDS011;51680;49.806;18.774;2023-01-05T03:26:31;2.05;;;0.75;;
41043;SDS011;51680;49.806;18.774;2023-01-05T03:29:51;1.33;;;0.63;;
41043;SDS011;51680;49.806;18.774;2023-01-05T03:33:13;2.95;;;0.85;;
41043;SDS011;51680;49.806;18.774;2023-01-05T03:36:42;2.17;;;0.70;;
41043;SDS011;51680;49.806;18.774;2023-01-05T03:39:48;2.15;;;0.90;;
41043;SDS011;51680;49.806;18.774;2023-01-05T03:42:50;1.42;;;0.70;;
41043;SDS011;51680;49.806;18.774;2023-01-05T03:45:53;1.17;;;0.50;;
41043;SDS011;51680;49.806;18.774;2023-01-05T03:48:59;1.50;;;0.50;;
41043;SDS011;51680;49.806;18.774;2023-01-05T03:52:03;1.25;;;0.40;;
41043;SDS011;51680;49.806;18.774;2023-01-05T03:55:06;2.15;;;0.50;;
41043;SDS011;51680;49.806;18.774;2023-01-05T03:58:09;2.72;;;0.60;;
41043;SDS011;51680;49.806;18.774;2023-01-05T04:01:15;1.90;;;0.60;;
41043;SDS011;51680;49.806;18.774;2023-01-05T04:04:17;0.82;;;0.45;;
41043;SDS011;51680;49.806;18.774;2023-01-05T04:07:21;1.08;;;0.55;;
41043;SDS011;51680;49.806;18.774;2023-01-05T04:10:23;1.67;;;0.40;;
41043;SDS011;51680;49.806;18.774;2023-01-05T04:13:25;0.63;;;0.40;;
41043;SDS011;51680;49.806;18.774;2023-01-05T04:16:28;1.27;;;0.50;;
41043;SDS011;51680;49.806;18.774;2023-01-05T04:19:34;1.48;;;0.43;;
41043;SDS011;51680;49.806;18.774;2023-01-05T04:22:37;0.52;;;0.30;;
41043;SDS011;51680;49.806;18.774;2023-01-05T04:25:41;0.82;;;0.50;;
41043;SDS011;51680;49.806;18.774;2023-01-05T04:28:52;1.88;;;0.50;;
41043;SDS011;51680;49.806;18.774;2023-01-05T04:31:57;2.10;;;0.50;;
41043;SDS011;51680;49.806;18.774;2023-01-05T04:34:59;0.90;;;0.30;;
41043;SDS011;51680;49.806;18.774;2023-01-05T04:38:03;1.05;;;0.32;;
41043;SDS011;51680;49.806;18.774;2023-01-05T04:41:05;2.55;;;0.40;;
41043;SDS011;51680;49.806;18.774;2023-01-05T04:44:08;0.70;;;0.40;;
41043;SDS011;51680;49.806;18.774;2023-01-05T04:47:10;0.70;;;0.38;;
41043;SDS011;51680;49.806;18.774;2023-01-05T04:50:15;1.23;;;0.50;;
41043;SDS011;51680;49.806;18.774;2023-01-05T04:53:19;1.77;;;0.60;;
41043;SDS011;51680;49.806;18.774;2023-01-05T04:56:22;0.90;;;0.47;;
41043;SDS011;51680;49.806;18.774;2023-01-05T04:59:24;1.20;;;0.47;;
41043;SDS011;51680;49.806;18.774;2023-01-05T05:02:27;0.85;;;0.40;;
41043;SDS011;51680;49.806;18.774;2023-01-05T05:05:29;2.92;;;0.60;;
41043;SDS011;51680;49.806;18.774;2023-01-05T05:08:32;1.67;;;0.60;;
41043;SDS011;51680;49.806;18.774;2023-01-05T05:11:36;1.35;;;0.60;;
41043;SDS011;51680;49.806;18.774;2023-01-05T05:14:38;1.10;;;0.38;;
41043;SDS011;51680;49.806;18.774;2023-01-05T05:17:40;0.90;;;0.35;;
41043;SDS011;51680;49.806;18.774;2023-01-05T05:20:46;1.08;;;0.40;;
41043;SDS011;51680;49.806;18.774;2023-01-05T05:23:53;1.98;;;0.47;;
41043;SDS011;51680;49.806;18.774;2023-01-05T05:26:55;1.55;;;0.50;;
41043;SDS011;51680;49.806;18.774;2023-01-05T05:29:57;2.85;;;0.57;;
41043;SDS011;51680;49.806;18.774;2023-01-05T05:32:59;2.53;;;0.60;;
41043;SDS011;51680;49.806;18.774;2023-01-05T05:36:01;1.58;;;0.52;;
41043;SDS011;51680;49.806;18.774;2023-01-05T05:39:04;1.85;;;0.43;;
41043;SDS011;51680;49.806;18.774;2023-01-05T05:42:06;2.17;;;0.60;;
41043;SDS011;51680;49.806;18.774;2023-01-05T05:45:08;2.03;;;0.45;;
41043;SDS011;51680;49.806;18.774;2023-01-05T05:48:10;2.72;;;0.47;;
41043;SDS011;51680;49.806;18.774;2023-01-05T05:51:12;1.80;;;0.60;;
41043;SDS011;51680;49.806;18.774;2023-01-05T05:54:15;1.83;;;0.52;;
41043;SDS011;51680;49.806;18.774;2023-01-05T05:57:17;1.98;;;0.55;;
41043;SDS011;51680;49.806;18.774;2023-01-05T06:00:19;3.70;;;0.73;;
41043;SDS011;51680;49.806;18.774;2023-01-05T06:03:20;2.92;;;0.70;;
41043;SDS011;51680;49.806;18.774;2023-01-05T06:06:22;2.10;;;0.65;;
41043;SDS011;51680;49.806;18.774;2023-01-05T06:09:25;3.30;;;1.10;;
41043;SDS011;51680;49.806;18.774;2023-01-05T06:12:27;4.13;;;0.90;;
41043;SDS011;51680;49.806;18.774;2023-01-05T06:15:29;4.82;;;0.93;;
41043;SDS011;51680;49.806;18.774;2023-01-05T06:18:30;2.78;;;0.90;;
41043;SDS011;51680;49.806;18.774;2023-01-05T06:21:32;3.80;;;0.70;;
41043;SDS011;51680;49.806;18.774;2023-01-05T06:24:35;3.30;;;0.80;;
41043;SDS011;51680;49.806;18.774;2023-01-05T06:27:55;1.95;;;0.68;;
41043;SDS011;51680;49.806;18.774;2023-01-05T06:30:57;3.30;;;1.20;;
41043;SDS011;51680;49.806;18.774;2023-01-05T06:33:59;2.67;;;0.70;;
41043;SDS011;51680;49.806;18.774;2023-01-05T06:37:01;3.58;;;1.10;;
41043;SDS011;51680;49.806;18.774;2023-01-05T06:40:07;3.25;;;0.80;;
41043;SDS011;51680;49.806;18.774;2023-01-05T06:43:11;3.25;;;0.70;;
41043;SDS011;51680;49.806;18.774;2023-01-05T06:46:13;2.17;;;0.68;;
41043;SDS011;51680;49.806;18.774;2023-01-05T06:49:14;3.13;;;0.90;;
41043;SDS011;51680;49.806;18.774;2023-01-05T06:52:16;2.42;;;0.93;;
41043;SDS011;51680;49.806;18.774;2023-01-05T06:55:19;4.22;;;1.00;;
41043;SDS011;51680;49.806;18.774;2023-01-05T06:58:22;3.53;;;0.80;;
41043;SDS011;51680;49.806;18.774;2023-01-05T07:01:23;3.15;;;0.82;;
41043;SDS011;51680;49.806;18.774;2023-01-05T07:04:25;4.53;;;0.95;;
41043;SDS011;51680;49.806;18.774;2023-01-05T07:07:27;2.80;;;0.80;;
41043;SDS011;51680;49.806;18.774;2023-01-05T07:10:30;3.70;;;0.70;;
41043;SDS011;51680;49.806;18.774;2023-01-05T07:13:32;2.77;;;0.90;;
41043;SDS011;51680;49.806;18.774;2023-01-05T07:16:33;2.35;;;0.77;;
41043;SDS011;51680;49.806;18.774;2023-01-05T07:19:35;3.05;;;0.70;;
41043;SDS011;51680;49.806;18.774;2023-01-05T07:22:37;3.22;;;0.90;;
41043;SDS011;51680;49.806;18.774;2023-01-05T07:25:40;4.45;;;2.40;;
41043;SDS011;51680;49.806;18.774;2023-01-05T07:28:42;4.47;;;2.55;;
41043;SDS011;51680;49.806;18.774;2023-01-05T07:31:44;7.57;;;3.20;;
41043;SDS011;51680;49.806;18.774;2023-01-05T07:34:46;7.82;;;5.40;;
41043;SDS011;51680;49.806;18.774;2023-01-05T07:37:48;7.07;;;3.33;;
41043;SDS011;51680;49.806;18.774;2023-01-05T07:40:51;14.35;;;8.45;;
41043;SDS011;51680;49.806;18.774;2023-01-05T07:43:53;11.43;;;6.23;;
41043;SDS011;51680;49.806;18.774;2023-01-05T07:46:55;74.72;;;37.25;;
41043;SDS011;51680;49.806;18.774;2023-01-05T07:49:57;32.00;;;13.40;;
41043;SDS011;51680;49.806;18.774;2023-01-05T07:52:59;3.95;;;1.58;;
41043;SDS011;51680;49.806;18.774;2023-01-05T07:56:02;20.85;;;9.60;;
41043;SDS011;51680;49.806;18.774;2023-01-05T07:59:05;10.30;;;4.05;;
41043;SDS011;51680;49.806;18.774;2023-01-05T08:02:08;7.57;;;0.90;;
41043;SDS011;51680;49.806;18.774;2023-01-05T08:05:11;8.20;;;1.85;;
41043;SDS011;51680;49.806;18.774;2023-01-05T08:08:13;9.27;;;1.83;;
41043;SDS011;51680;49.806;18.774;2023-01-05T08:11:17;6.18;;;1.50;;
41043;SDS011;51680;49.806;18.774;2023-01-05T08:14:20;3.90;;;1.30;;
41043;SDS011;51680;49.806;18.774;2023-01-05T08:17:22;4.80;;;1.00;;
41043;SDS011;51680;49.806;18.774;2023-01-05T08:20:23;4.05;;;1.02;;
41043;SDS011;51680;49.806;18.774;2023-01-05T08:23:25;3.70;;;1.08;;
41043;SDS011;51680;49.806;18.774;2023-01-05T08:26:29;2.83;;;0.95;;
41043;SDS011;51680;49.806;18.774;2023-01-05T08:29:31;5.13;;;1.23;;
41043;SDS011;51680;49.806;18.774;2023-01-05T08:32:33;3.83;;;1.58;;
41043;SDS011;51680;49.806;18.774;2023-01-05T08:35:53;4.03;;;1.30;;
41043;SDS011;51680;49.806;18.774;2023-01-05T08:38:55;3.97;;;1.70;;
41043;SDS011;51680;49.806;18.774;2023-01-05T08:41:58;3.92;;;1.85;;
41043;SDS011;51680;49.806;18.774;2023-01-05T08:45:00;5.53;;;2.40;;
41043;SDS011;51680;49.806;18.774;2023-01-05T08:48:02;7.78;;;2.92;;
41043;SDS011;51680;49.806;18.774;2023-01-05T08:51:03;6.00;;;2.38;;
41043;SDS011;51680;49.806;18.774;2023-01-05T08:54:06;6.13;;;2.60;;
41043;SDS011;51680;49.806;18.774;2023-01-05T08:57:09;5.72;;;2.55;;
41043;SDS011;51680;49.806;18.774;2023-01-05T09:00:30;6.72;;;2.60;;
41043;SDS011;51680;49.806;18.774;2023-01-05T09:03:32;13.75;;;9.55;;
41043;SDS011;51680;49.806;18.774;2023-01-05T09:06:34;10.35;;;6.00;;
41043;SDS011;51680;49.806;18.774;2023-01-05T09:09:36;8.57;;;3.63;;
41043;SDS011;51680;49.806;18.774;2023-01-05T09:12:39;4.93;;;2.40;;
41043;SDS011;51680;49.806;18.774;2023-01-05T09:15:40;6.23;;;2.80;;
41043;SDS011;51680;49.806;18.774;2023-01-05T09:18:42;8.10;;;4.47;;
41043;SDS011;51680;49.806;18.774;2023-01-05T09:21:45;6.60;;;3.50;;
41043;SDS011;51680;49.806;18.774;2023-01-05T09:24:47;5.78;;;2.65;;
41043;SDS011;51680;49.806;18.774;2023-01-05T09:27:50;3.78;;;1.80;;
41043;SDS011;51680;49.806;18.774;2023-01-05T09:30:51;4.60;;;2.20;;
41043;SDS011;51680;49.806;18.774;2023-01-05T09:33:54;5.88;;;1.73;;
41043;SDS011;51680;49.806;18.774;2023-01-05T09:36:56;5.20;;;2.60;;
41043;SDS011;51680;49.806;18.774;2023-01-05T09:39:58;5.30;;;2.60;;
41043;SDS011;51680;49.806;18.774;2023-01-05T09:43:01;4.95;;;2.67;;
41043;SDS011;51680;49.806;18.774;2023-01-05T09:46:03;5.43;;;3.27;;
41043;SDS011;51680;49.806;18.774;2023-01-05T09:49:10;6.10;;;2.70;;
41043;SDS011;51680;49.806;18.774;2023-01-05T09:52:14;4.88;;;2.70;;
41043;SDS011;51680;49.806;18.774;2023-01-05T09:55:20;7.45;;;3.42;;
41043;SDS011;51680;49.806;18.774;2023-01-05T09:58:26;5.93;;;2.80;;
41043;SDS011;51680;49.806;18.774;2023-01-05T10:01:51;9.93;;;3.75;;
41043;SDS011;51680;49.806;18.774;2023-01-05T10:07:57;10.98;;;4.10;;
41043;SDS011;51680;49.806;18.774;2023-01-05T10:11:03;8.63;;;4.07;;
41043;SDS011;51680;49.806;18.774;2023-01-05T10:14:31;14.30;;;6.00;;
41043;SDS011;51680;49.806;18.774;2023-01-05T10:17:38;11.25;;;4.60;;
41043;SDS011;51680;49.806;18.774;2023-01-05T10:20:44;10.63;;;4.38;;
41043;SDS011;51680;49.806;18.774;2023-01-05T10:23:57;12.25;;;5.05;;
41043;SDS011;51680;49.806;18.774;2023-01-05T10:27:18;9.73;;;5.25;;
41043;SDS011;51680;49.806;18.774;2023-01-05T10:30:32;11.35;;;4.50;;
41043;SDS011;51680;49.806;18.774;2023-01-05T10:33:46;9.75;;;4.05;;
41043;SDS011;51680;49.806;18.774;2023-01-05T10:36:55;21.25;;;10.43;;
41043;SDS011;51680;49.806;18.774;2023-01-05T10:40:23;34.10;;;18.20;;
41043;SDS011;51680;49.806;18.774;2023-01-05T10:43:39;22.77;;;14.48;;
41043;SDS011;51680;49.806;18.774;2023-01-05T10:46:49;13.90;;;6.95;;
41043;SDS011;51680;49.806;18.774;2023-01-05T10:49:51;15.03;;;7.37;;
41043;SDS011;51680;49.806;18.774;2023-01-05T10:52:53;21.80;;;11.57;;
41043;SDS011;51680;49.806;18.774;2023-01-05T10:55:57;14.70;;;7.55;;
41043;SDS011;51680;49.806;18.774;2023-01-05T10:59:07;25.30;;;14.02;;
41043;SDS011;51680;49.806;18.774;2023-01-05T11:02:11;32.47;;;17.73;;
41043;SDS011;51680;49.806;18.774;2023-01-05T11:05:17;23.10;;;12.32;;
41043;SDS011;51680;49.806;18.774;2023-01-05T11:08:30;12.15;;;6.05;;
41043;SDS011;51680;49.806;18.774;2023-01-05T11:11:34;14.15;;;7.78;;
41043;SDS011;51680;49.806;18.774;2023-01-05T11:14:39;20.95;;;11.00;;
41043;SDS011;51680;49.806;18.774;2023-01-05T11:17:44;9.68;;;4.43;;
41043;SDS011;51680;49.806;18.774;2023-01-05T11:27:29;9.40;;;5.22;;
41043;SDS011;51680;49.806;18.774;2023-01-05T11:30:31;11.25;;;5.97;;
41043;SDS011;51680;49.806;18.774;2023-01-05T11:33:35;6.65;;;3.47;;
41043;SDS011;51680;49.806;18.774;2023-01-05T11:36:38;6.28;;;3.17;;
41043;SDS011;51680;49.806;18.774;2023-01-05T11:39:46;5.13;;;2.83;;
41043;SDS011;51680;49.806;18.774;2023-01-05T11:42:50;6.05;;;3.00;;
41043;SDS011;51680;49.806;18.774;2023-01-05T11:45:52;7.38;;;2.63;;
41043;SDS011;51680;49.806;18.774;2023-01-05T11:48:57;6.57;;;1.63;;
41043;SDS011;51680;49.806;18.774;2023-01-05T11:52:00;6.67;;;2.40;;
41043;SDS011;51680;49.806;18.774;2023-01-05T11:58:33;7.95;;;2.70;;
41043;SDS011;51680;49.806;18.774;2023-01-05T12:01:47;7.15;;;2.67;;
41043;SDS011;51680;49.806;18.774;2023-01-05T12:05:09;11.90;;;3.80;;
41043;SDS011;51680;49.806;18.774;2023-01-05T12:08:20;8.45;;;3.28;;
41043;SDS011;51680;49.806;18.774;2023-01-05T12:11:26;9.48;;;4.38;;
41043;SDS011;51680;49.806;18.774;2023-01-05T12:15:03;7.93;;;3.17;;
41043;SDS011;51680;49.806;18.774;2023-01-05T12:18:20;8.48;;;2.58;;
41043;SDS011;51680;49.806;18.774;2023-01-05T12:21:34;9.10;;;2.45;;
41043;SDS011;51680;49.806;18.774;2023-01-05T12:24:51;5.53;;;2.38;;
41043;SDS011;51680;49.806;18.774;2023-01-05T12:28:12;9.00;;;2.55;;
41043;SDS011;51680;49.806;18.774;2023-01-05T12:31:29;7.10;;;2.72;;
41043;SDS011;51680;49.806;18.774;2023-01-05T12:34:45;7.45;;;2.20;;
41043;SDS011;51680;49.806;18.774;2023-01-05T12:38:09;9.57;;;2.15;;
41043;SDS011;51680;49.806;18.774;2023-01-05T12:41:24;4.95;;;2.13;;
41043;SDS011;51680;49.806;18.774;2023-01-05T12:48:24;6.13;;;2.22;;
41043;SDS011;51680;49.806;18.774;2023-01-05T12:51:31;8.32;;;2.03;;
41043;SDS011;51680;49.806;18.774;2023-01-05T12:54:40;7.93;;;2.13;;
41043;SDS011;51680;49.806;18.774;2023-01-05T12:57:48;5.72;;;2.17;;
41043;SDS011;51680;49.806;18.774;2023-01-05T13:00:53;5.43;;;1.95;;
41043;SDS011;51680;49.806;18.774;2023-01-05T13:03:57;9.43;;;5.45;;
41043;SDS011;51680;49.806;18.774;2023-01-05T13:07:04;5.45;;;2.35;;
41043;SDS011;51680;49.806;18.774;2023-01-05T13:10:14;7.20;;;3.80;;
41043;SDS011;51680;49.806;18.774;2023-01-05T13:13:22;5.18;;;2.65;;
41043;SDS011;51680;49.806;18.774;2023-01-05T13:16:29;10.20;;;3.10;;
41043;SDS011;51680;49.806;18.774;2023-01-05T13:19:39;5.30;;;2.08;;
41043;SDS011;51680;49.806;18.774;2023-01-05T13:22:45;7.75;;;2.15;;
41043;SDS011;51680;49.806;18.774;2023-01-05T13:26:13;7.97;;;2.17;;
41043;SDS011;51680;49.806;18.774;2023-01-05T13:29:20;6.15;;;2.42;;
41043;SDS011;51680;49.806;18.774;2023-01-05T13:32:28;7.00;;;2.33;;
41043;SDS011;51680;49.806;18.774;2023-01-05T13:35:42;6.93;;;1.83;;
41043;SDS011;51680;49.806;18.774;2023-01-05T13:38:57;5.78;;;1.85;;
41043;SDS011;51680;49.806;18.774;2023-01-05T13:42:26;5.88;;;2.15;;
41043;SDS011;51680;49.806;18.774;2023-01-05T13:46:02;6.45;;;2.17;;
41043;SDS011;51680;49.806;18.774;2023-01-05T13:49:18;7.75;;;2.20;;
41043;SDS011;51680;49.806;18.774;2023-01-05T13:52:55;4.57;;;1.73;;
41043;SDS011;51680;49.806;18.774;2023-01-05T13:56:05;5.82;;;2.20;;
41043;SDS011;51680;49.806;18.774;2023-01-05T14:02:44;5.70;;;2.15;;
41043;SDS011;51680;49.806;18.774;2023-01-05T14:05:56;9.02;;;3.58;;
41043;SDS011;51680;49.806;18.774;2023-01-05T14:09:00;11.18;;;4.20;;
41043;SDS011;51680;49.806;18.774;2023-01-05T14:15:48;10.75;;;3.33;;
41043;SDS011;51680;49.806;18.774;2023-01-05T14:18:50;7.80;;;3.13;;
41043;SDS011;51680;49.806;18.774;2023-01-05T14:22:00;8.35;;;3.03;;
41043;SDS011;51680;49.806;18.774;2023-01-05T14:28:46;4.78;;;1.38;;
41043;SDS011;51680;49.806;18.774;2023-01-05T14:31:49;2.90;;;1.02;;
41043;SDS011;51680;49.806;18.774;2023-01-05T14:34:52;3.43;;;1.23;;
41043;SDS011;51680;49.806;18.774;2023-01-05T14:37:57;6.20;;;1.27;;
41043;SDS011;51680;49.806;18.774;2023-01-05T14:41:01;5.13;;;1.25;;
41043;SDS011;51680;49.806;18.774;2023-01-05T14:47:32;7.38;;;1.92;;
41043;SDS011;51680;49.806;18.774;2023-01-05T14:50:36;5.47;;;1.90;;
41043;SDS011;51680;49.806;18.774;2023-01-05T14:53:41;3.78;;;1.60;;
41043;SDS011;51680;49.806;18.774;2023-01-05T14:56:44;4.97;;;2.25;;
41043;SDS011;51680;49.806;18.774;2023-01-05T15:00:32;5.82;;;2.33;;
41043;SDS011;51680;49.806;18.774;2023-01-05T15:03:40;8.13;;;3.63;;
41043;SDS011;51680;49.806;18.774;2023-01-05T15:06:54;6.63;;;3.22;;
41043;SDS011;51680;49.806;18.774;2023-01-05T15:10:16;6.03;;;3.17;;
41043;SDS011;51680;49.806;18.774;2023-01-05T15:13:39;9.80;;;6.05;;
41043;SDS011;51680;49.806;18.774;2023-01-05T15:28:11;6.82;;;3.17;;
41043;SDS011;51680;49.806;18.774;2023-01-05T15:31:30;8.32;;;3.47;;
41043;SDS011;51680;49.806;18.774;2023-01-05T15:34:37;11.95;;;4.00;;
41043;SDS011;51680;49.806;18.774;2023-01-05T15:37:44;5.72;;;2.53;;
41043;SDS011;51680;49.806;18.774;2023-01-05T15:40:47;8.60;;;4.15;;
41043;SDS011;51680;49.806;18.774;2023-01-05T15:43:55;7.93;;;4.07;;
41043;SDS011;51680;49.806;18.774;2023-01-05T15:46:57;5.50;;;1.90;;
41043;SDS011;51680;49.806;18.774;2023-01-05T15:49:59;6.07;;;2.38;;
41043;SDS011;51680;49.806;18.774;2023-01-05T15:53:03;4.75;;;2.70;;
41043;SDS011;51680;49.806;18.774;2023-01-05T15:56:05;5.80;;;2.58;;
41043;SDS011;51680;49.806;18.774;2023-01-05T15:59:28;7.18;;;3.22;;
41043;SDS011;51680;49.806;18.774;2023-01-05T16:02:32;12.75;;;8.45;;
41043;SDS011;51680;49.806;18.774;2023-01-05T16:05:33;8.02;;;5.10;;
41043;SDS011;51680;49.806;18.774;2023-01-05T16:08:38;10.77;;;5.57;;
41043;SDS011;51680;49.806;18.774;2023-01-05T16:11:42;12.20;;;8.25;;
41043;SDS011;51680;49.806;18.774;2023-01-05T16:17:48;9.82;;;6.03;;
41043;SDS011;51680;49.806;18.774;2023-01-05T16:20:53;12.13;;;6.22;;
41043;SDS011;51680;49.806;18.774;2023-01-05T16:24:00;10.95;;;4.13;;
41043;SDS011;51680;49.806;18.774;2023-01-05T16:27:07;10.73;;;4.47;;
41043;SDS011;51680;49.806;18.774;2023-01-05T16:30:12;12.48;;;4.18;;
41043;SDS011;51680;49.806;18.774;2023-01-05T16:33:26;9.40;;;3.47;;
41043;SDS011;51680;49.806;18.774;2023-01-05T16:36:33;7.38;;;3.10;;
41043;SDS011;51680;49.806;18.774;2023-01-05T16:39:37;6.97;;;2.80;;
41043;SDS011;51680;49.806;18.774;2023-01-05T16:42:41;6.35;;;2.10;;
41043;SDS011;51680;49.806;18.774;2023-01-05T16:45:47;5.80;;;2.75;;
41043;SDS011;51680;49.806;18.774;2023-01-05T16:48:51;5.83;;;2.70;;
41043;SDS011;51680;49.806;18.774;2023-01-05T16:51:54;6.25;;;3.13;;
41043;SDS011;51680;49.806;18.774;2023-01-05T16:55:16;7.23;;;2.63;;
41043;SDS011;51680;49.806;18.774;2023-01-05T16:58:32;8.10;;;3.03;;
41043;SDS011;51680;49.806;18.774;2023-01-05T17:01:36;7.35;;;2.80;;
41043;SDS011;51680;49.806;18.774;2023-01-05T17:04:40;5.50;;;2.40;;
41043;SDS011;51680;49.806;18.774;2023-01-05T17:07:42;5.85;;;2.63;;
41043;SDS011;51680;49.806;18.774;2023-01-05T17:10:48;6.05;;;2.58;;
41043;SDS011;51680;49.806;18.774;2023-01-05T17:13:51;6.28;;;2.28;;
41043;SDS011;51680;49.806;18.774;2023-01-05T17:16:54;7.43;;;2.53;;
41043;SDS011;51680;49.806;18.774;2023-01-05T17:19:56;6.13;;;2.50;;
41043;SDS011;51680;49.806;18.774;2023-01-05T17:22:58;5.57;;;2.03;;
41043;SDS011;51680;49.806;18.774;2023-01-05T17:26:02;5.05;;;1.92;;
41043;SDS011;51680;49.806;18.774;2023-01-05T17:29:17;5.40;;;2.15;;
41043;SDS011;51680;49.806;18.774;2023-01-05T17:32:20;4.93;;;2.13;;
41043;SDS011;51680;49.806;18.774;2023-01-05T17:35:22;5.50;;;2.38;;
41043;SDS011;51680;49.806;18.774;2023-01-05T17:38:24;5.55;;;2.13;;
41043;SDS011;51680;49.806;18.774;2023-01-05T17:41:27;5.15;;;2.20;;
41043;SDS011;51680;49.806;18.774;2023-01-05T17:44:29;4.95;;;1.83;;
41043;SDS011;51680;49.806;18.774;2023-01-05T17:47:31;4.97;;;2.00;;
41043;SDS011;51680;49.806;18.774;2023-01-05T17:50:32;7.07;;;2.35;;
41043;SDS011;51680;49.806;18.774;2023-01-05T17:53:34;26.23;;;14.50;;
41043;SDS011;51680;49.806;18.774;2023-01-05T17:56:37;6.82;;;2.80;;
41043;SDS011;51680;49.806;18.774;2023-01-05T17:59:39;5.53;;;2.00;;
41043;SDS011;51680;49.806;18.774;2023-01-05T18:02:41;5.05;;;1.73;;
41043;SDS011;51680;49.806;18.774;2023-01-05T18:05:42;4.15;;;1.80;;
41043;SDS011;51680;49.806;18.774;2023-01-05T18:08:44;5.20;;;2.20;;
41043;SDS011;51680;49.806;18.774;2023-01-05T18:11:47;5.00;;;1.80;;
41043;SDS011;51680;49.806;18.774;2023-01-05T18:14:49;4.50;;;1.60;;
41043;SDS011;51680;49.806;18.774;2023-01-05T18:17:54;4.10;;;1.52;;
41043;SDS011;51680;49.806;18.774;2023-01-05T18:20:57;3.95;;;1.80;;
41043;SDS011;51680;49.806;18.774;2023-01-05T18:24:00;3.85;;;1.77;;
41043;SDS011;51680;49.806;18.774;2023-01-05T18:27:03;5.25;;;2.13;;
41043;SDS011;51680;49.806;18.774;2023-01-05T18:30:06;4.93;;;1.83;;
41043;SDS011;51680;49.806;18.774;2023-01-05T18:33:10;5.15;;;2.10;;
41043;SDS011;51680;49.806;18.774;2023-01-05T18:36:13;3.97;;;1.80;;
41043;SDS011;51680;49.806;18.774;2023-01-05T18:39:15;5.07;;;1.52;;
41043;SDS011;51680;49.806;18.774;2023-01-05T18:42:18;6.20;;;2.20;;
41043;SDS011;51680;49.806;18.774;2023-01-05T18:45:20;7.83;;;3.30;;
41043;SDS011;51680;49.806;18.774;2023-01-05T18:48:22;6.00;;;2.67;;
41043;SDS011;51680;49.806;18.774;2023-01-05T18:51:23;6.75;;;2.60;;
41043;SDS011;51680;49.806;18.774;2023-01-05T18:54:25;9.20;;;3.30;;
41043;SDS011;51680;49.806;18.774;2023-01-05T18:57:28;7.93;;;2.75;;
41043;SDS011;51680;49.806;18.774;2023-01-05T19:00:30;8.70;;;3.50;;
41043;SDS011;51680;49.806;18.774;2023-01-05T19:03:32;8.05;;;2.60;;
41043;SDS011;51680;49.806;18.774;2023-01-05T19:06:35;14.07;;;6.18;;
41043;SDS011;51680;49.806;18.774;2023-01-05T19:09:36;9.73;;;3.17;;
41043;SDS011;51680;49.806;18.774;2023-01-05T19:12:39;9.07;;;2.67;;